Terminal Aerodrome Forecast
Issued by NWS

Home | Current Version | Previous Version | Text Only | Print | Product List | Glossary On
Versions: 1 2 3 4 5 6 7 8 9 10 11 12 13 14 15 16 17 18 19 20 21 22 23
000
FTUS43 KDTX 112320
TAFPTK
TAF
KPTK 112320Z 1200/1224 14005KT 1SM -SN SCT006 OVC012
      TEMPO 1201/1203 1/2SM SN FZFG VV012
     FM120400 VRB04KT 4SM -SN OVC012
     FM120600 28010KT 6SM -SHSN BKN025 OVC035
     FM121000 31018G30KT P6SM OVC035=

USA.gov is the U.S. government's official web portal to all federal, state and local government web resources and services.